sensor_id;sensor_type;location;lat;lon;timestamp;P1;durP1;ratioP1;P2;durP2;ratioP2
14348;SDS011;7258;50.376;8.742;2023-07-13T00:01:14;4.43;;;1.40;;
14348;SDS011;7258;50.376;8.742;2023-07-13T00:03:18;5.03;;;1.80;;
14348;SDS011;7258;50.376;8.742;2023-07-13T00:05:22;2.38;;;1.58;;
14348;SDS011;7258;50.376;8.742;2023-07-13T00:07:26;1.83;;;1.50;;
14348;SDS011;7258;50.376;8.742;2023-07-13T00:09:29;3.33;;;1.63;;
14348;SDS011;7258;50.376;8.742;2023-07-13T00:11:33;4.22;;;2.08;;
14348;SDS011;7258;50.376;8.742;2023-07-13T00:13:36;2.63;;;1.80;;
14348;SDS011;7258;50.376;8.742;2023-07-13T00:15:40;2.58;;;1.70;;
14348;SDS011;7258;50.376;8.742;2023-07-13T00:17:43;2.78;;;1.50;;
14348;SDS011;7258;50.376;8.742;2023-07-13T00:19:46;4.80;;;1.45;;
14348;SDS011;7258;50.376;8.742;2023-07-13T00:21:50;3.13;;;1.70;;
14348;SDS011;7258;50.376;8.742;2023-07-13T00:23:57;3.40;;;1.60;;
14348;SDS011;7258;50.376;8.742;2023-07-13T00:26:02;4.32;;;1.77;;
14348;SDS011;7258;50.376;8.742;2023-07-13T00:28:07;4.47;;;1.88;;
14348;SDS011;7258;50.376;8.742;2023-07-13T00:30:11;2.70;;;1.75;;
14348;SDS011;7258;50.376;8.742;2023-07-13T00:32:14;3.20;;;1.70;;
14348;SDS011;7258;50.376;8.742;2023-07-13T00:34:16;2.50;;;1.50;;
14348;SDS011;7258;50.376;8.742;2023-07-13T00:36:19;2.47;;;1.30;;
14348;SDS011;7258;50.376;8.742;2023-07-13T00:38:24;3.80;;;1.77;;
14348;SDS011;7258;50.376;8.742;2023-07-13T00:40:27;4.22;;;1.58;;
14348;SDS011;7258;50.376;8.742;2023-07-13T00:42:30;3.90;;;1.65;;
14348;SDS011;7258;50.376;8.742;2023-07-13T00:44:33;2.13;;;1.50;;
14348;SDS011;7258;50.376;8.742;2023-07-13T00:46:36;5.63;;;1.65;;
14348;SDS011;7258;50.376;8.742;2023-07-13T00:48:38;1.65;;;1.23;;
14348;SDS011;7258;50.376;8.742;2023-07-13T00:50:43;5.05;;;1.75;;
14348;SDS011;7258;50.376;8.742;2023-07-13T00:52:49;2.17;;;1.45;;
14348;SDS011;7258;50.376;8.742;2023-07-13T00:54:57;3.35;;;1.75;;
14348;SDS011;7258;50.376;8.742;2023-07-13T00:57:01;3.15;;;1.45;;
14348;SDS011;7258;50.376;8.742;2023-07-13T00:59:05;2.67;;;1.60;;
14348;SDS011;7258;50.376;8.742;2023-07-13T01:01:12;1.98;;;1.35;;
14348;SDS011;7258;50.376;8.742;2023-07-13T01:03:15;5.53;;;1.45;;
14348;SDS011;7258;50.376;8.742;2023-07-13T01:05:19;6.65;;;1.58;;
14348;SDS011;7258;50.376;8.742;2023-07-13T01:07:23;3.00;;;1.40;;
14348;SDS011;7258;50.376;8.742;2023-07-13T01:09:27;3.58;;;1.25;;
14348;SDS011;7258;50.376;8.742;2023-07-13T01:11:31;5.05;;;1.70;;
14348;SDS011;7258;50.376;8.742;2023-07-13T01:13:38;5.05;;;1.80;;
14348;SDS011;7258;50.376;8.742;2023-07-13T01:15:42;3.40;;;1.70;;
14348;SDS011;7258;50.376;8.742;2023-07-13T01:17:46;3.45;;;1.60;;
14348;SDS011;7258;50.376;8.742;2023-07-13T01:19:49;4.00;;;1.60;;
14348;SDS011;7258;50.376;8.742;2023-07-13T01:21:53;5.28;;;1.73;;
14348;SDS011;7258;50.376;8.742;2023-07-13T01:23:57;5.80;;;1.80;;
14348;SDS011;7258;50.376;8.742;2023-07-13T01:26:00;3.85;;;1.50;;
14348;SDS011;7258;50.376;8.742;2023-07-13T01:28:03;3.67;;;1.65;;
14348;SDS011;7258;50.376;8.742;2023-07-13T01:30:08;3.00;;;1.38;;
14348;SDS011;7258;50.376;8.742;2023-07-13T01:32:13;2.88;;;1.55;;
14348;SDS011;7258;50.376;8.742;2023-07-13T01:34:17;3.10;;;1.58;;
14348;SDS011;7258;50.376;8.742;2023-07-13T01:36:20;3.28;;;1.75;;
14348;SDS011;7258;50.376;8.742;2023-07-13T01:38:24;4.68;;;1.73;;
14348;SDS011;7258;50.376;8.742;2023-07-13T01:40:28;3.58;;;1.50;;
14348;SDS011;7258;50.376;8.742;2023-07-13T01:42:32;3.47;;;1.55;;
14348;SDS011;7258;50.376;8.742;2023-07-13T01:44:35;3.65;;;1.52;;
14348;SDS011;7258;50.376;8.742;2023-07-13T01:46:38;6.10;;;1.83;;
14348;SDS011;7258;50.376;8.742;2023-07-13T01:48:41;5.18;;;1.70;;
14348;SDS011;7258;50.376;8.742;2023-07-13T01:50:44;3.13;;;1.60;;
14348;SDS011;7258;50.376;8.742;2023-07-13T01:52:47;3.67;;;1.48;;
14348;SDS011;7258;50.376;8.742;2023-07-13T01:54:50;4.10;;;1.60;;
14348;SDS011;7258;50.376;8.742;2023-07-13T01:56:56;5.93;;;1.73;;
14348;SDS011;7258;50.376;8.742;2023-07-13T01:59:01;3.47;;;1.73;;
14348;SDS011;7258;50.376;8.742;2023-07-13T02:01:05;3.75;;;1.70;;
14348;SDS011;7258;50.376;8.742;2023-07-13T02:03:08;4.22;;;1.50;;
14348;SDS011;7258;50.376;8.742;2023-07-13T02:05:11;2.53;;;1.50;;
14348;SDS011;7258;50.376;8.742;2023-07-13T02:07:14;5.82;;;1.52;;
14348;SDS011;7258;50.376;8.742;2023-07-13T02:09:17;3.13;;;1.50;;
14348;SDS011;7258;50.376;8.742;2023-07-13T02:11:21;4.10;;;1.52;;
14348;SDS011;7258;50.376;8.742;2023-07-13T02:13:24;5.70;;;1.92;;
14348;SDS011;7258;50.376;8.742;2023-07-13T02:15:27;6.07;;;2.08;;
14348;SDS011;7258;50.376;8.742;2023-07-13T02:17:30;4.30;;;2.10;;
14348;SDS011;7258;50.376;8.742;2023-07-13T02:19:37;3.15;;;1.85;;
14348;SDS011;7258;50.376;8.742;2023-07-13T02:21:39;4.38;;;1.98;;
14348;SDS011;7258;50.376;8.742;2023-07-13T02:23:42;4.22;;;1.70;;
14348;SDS011;7258;50.376;8.742;2023-07-13T02:25:45;4.32;;;1.83;;
14348;SDS011;7258;50.376;8.742;2023-07-13T02:27:50;2.75;;;1.60;;
14348;SDS011;7258;50.376;8.742;2023-07-13T02:29:53;3.50;;;1.50;;
14348;SDS011;7258;50.376;8.742;2023-07-13T02:31:55;3.95;;;1.60;;
14348;SDS011;7258;50.376;8.742;2023-07-13T02:33:58;7.60;;;1.75;;
14348;SDS011;7258;50.376;8.742;2023-07-13T02:36:02;2.38;;;1.40;;
14348;SDS011;7258;50.376;8.742;2023-07-13T02:38:06;2.30;;;1.25;;
14348;SDS011;7258;50.376;8.742;2023-07-13T02:40:10;3.30;;;1.65;;
14348;SDS011;7258;50.376;8.742;2023-07-13T02:42:12;5.88;;;1.98;;
14348;SDS011;7258;50.376;8.742;2023-07-13T02:44:16;5.40;;;1.60;;
14348;SDS011;7258;50.376;8.742;2023-07-13T02:46:19;2.95;;;1.50;;
14348;SDS011;7258;50.376;8.742;2023-07-13T02:48:22;3.60;;;1.48;;
14348;SDS011;7258;50.376;8.742;2023-07-13T02:50:25;5.32;;;1.73;;
14348;SDS011;7258;50.376;8.742;2023-07-13T02:52:29;2.90;;;1.50;;
14348;SDS011;7258;50.376;8.742;2023-07-13T02:54:33;4.57;;;1.52;;
14348;SDS011;7258;50.376;8.742;2023-07-13T02:56:36;8.30;;;2.05;;
14348;SDS011;7258;50.376;8.742;2023-07-13T02:58:40;4.05;;;1.60;;
14348;SDS011;7258;50.376;8.742;2023-07-13T03:00:45;6.70;;;1.73;;
14348;SDS011;7258;50.376;8.742;2023-07-13T03:02:48;5.97;;;2.03;;
14348;SDS011;7258;50.376;8.742;2023-07-13T03:04:51;4.45;;;1.75;;
14348;SDS011;7258;50.376;8.742;2023-07-13T03:06:54;2.47;;;1.60;;
14348;SDS011;7258;50.376;8.742;2023-07-13T03:08:59;3.28;;;1.55;;
14348;SDS011;7258;50.376;8.742;2023-07-13T03:11:01;4.13;;;1.50;;
14348;SDS011;7258;50.376;8.742;2023-07-13T03:13:06;4.65;;;1.70;;
14348;SDS011;7258;50.376;8.742;2023-07-13T03:15:09;3.20;;;1.80;;
14348;SDS011;7258;50.376;8.742;2023-07-13T03:17:14;4.60;;;1.70;;
14348;SDS011;7258;50.376;8.742;2023-07-13T03:19:17;4.45;;;1.60;;
14348;SDS011;7258;50.376;8.742;2023-07-13T03:21:21;3.28;;;1.67;;
14348;SDS011;7258;50.376;8.742;2023-07-13T03:23:24;3.25;;;1.67;;
14348;SDS011;7258;50.376;8.742;2023-07-13T03:25:27;4.38;;;1.90;;
14348;SDS011;7258;50.376;8.742;2023-07-13T03:27:30;3.50;;;1.60;;
14348;SDS011;7258;50.376;8.742;2023-07-13T03:29:33;3.50;;;1.60;;
14348;SDS011;7258;50.376;8.742;2023-07-13T03:31:36;3.28;;;1.70;;
14348;SDS011;7258;50.376;8.742;2023-07-13T03:33:40;2.85;;;1.75;;
14348;SDS011;7258;50.376;8.742;2023-07-13T03:35:44;5.93;;;1.92;;
14348;SDS011;7258;50.376;8.742;2023-07-13T03:37:46;4.10;;;1.60;;
14348;SDS011;7258;50.376;8.742;2023-07-13T03:39:49;3.55;;;1.80;;
14348;SDS011;7258;50.376;8.742;2023-07-13T03:41:52;3.58;;;1.65;;
14348;SDS011;7258;50.376;8.742;2023-07-13T03:43:55;7.43;;;1.90;;
14348;SDS011;7258;50.376;8.742;2023-07-13T03:45:58;6.25;;;1.65;;
14348;SDS011;7258;50.376;8.742;2023-07-13T03:48:01;2.50;;;1.50;;
14348;SDS011;7258;50.376;8.742;2023-07-13T03:50:06;3.65;;;1.63;;
14348;SDS011;7258;50.376;8.742;2023-07-13T03:52:09;4.60;;;1.65;;
14348;SDS011;7258;50.376;8.742;2023-07-13T03:54:12;3.20;;;1.42;;
14348;SDS011;7258;50.376;8.742;2023-07-13T03:56:16;3.15;;;1.50;;
14348;SDS011;7258;50.376;8.742;2023-07-13T03:58:24;5.00;;;1.70;;
14348;SDS011;7258;50.376;8.742;2023-07-13T04:00:29;3.03;;;1.70;;
14348;SDS011;7258;50.376;8.742;2023-07-13T04:02:32;4.93;;;1.88;;
14348;SDS011;7258;50.376;8.742;2023-07-13T04:04:36;3.40;;;1.40;;
14348;SDS011;7258;50.376;8.742;2023-07-13T04:06:42;2.78;;;1.40;;
14348;SDS011;7258;50.376;8.742;2023-07-13T04:08:45;6.05;;;1.60;;
14348;SDS011;7258;50.376;8.742;2023-07-13T04:10:47;4.30;;;1.70;;
14348;SDS011;7258;50.376;8.742;2023-07-13T04:12:50;3.92;;;1.80;;
14348;SDS011;7258;50.376;8.742;2023-07-13T04:14:53;5.00;;;1.63;;
14348;SDS011;7258;50.376;8.742;2023-07-13T04:16:56;3.00;;;1.75;;
14348;SDS011;7258;50.376;8.742;2023-07-13T04:18:59;4.05;;;1.63;;
14348;SDS011;7258;50.376;8.742;2023-07-13T04:21:02;2.70;;;1.35;;
14348;SDS011;7258;50.376;8.742;2023-07-13T04:23:08;5.38;;;1.92;;
14348;SDS011;7258;50.376;8.742;2023-07-13T04:25:10;4.00;;;1.80;;
14348;SDS011;7258;50.376;8.742;2023-07-13T04:27:12;3.05;;;1.60;;
14348;SDS011;7258;50.376;8.742;2023-07-13T04:29:15;5.82;;;1.50;;
14348;SDS011;7258;50.376;8.742;2023-07-13T04:31:18;3.53;;;1.60;;
14348;SDS011;7258;50.376;8.742;2023-07-13T04:33:22;4.93;;;1.50;;
14348;SDS011;7258;50.376;8.742;2023-07-13T04:35:26;4.15;;;1.58;;
14348;SDS011;7258;50.376;8.742;2023-07-13T04:37:28;5.97;;;1.70;;
14348;SDS011;7258;50.376;8.742;2023-07-13T04:39:32;7.70;;;1.70;;
14348;SDS011;7258;50.376;8.742;2023-07-13T04:41:38;3.45;;;1.60;;
14348;SDS011;7258;50.376;8.742;2023-07-13T04:43:41;3.55;;;1.73;;
14348;SDS011;7258;50.376;8.742;2023-07-13T04:45:44;5.25;;;1.42;;
14348;SDS011;7258;50.376;8.742;2023-07-13T04:47:47;4.30;;;1.80;;
14348;SDS011;7258;50.376;8.742;2023-07-13T04:49:50;4.68;;;2.10;;
14348;SDS011;7258;50.376;8.742;2023-07-13T04:51:52;4.43;;;1.95;;
14348;SDS011;7258;50.376;8.742;2023-07-13T04:53:56;5.57;;;2.22;;
14348;SDS011;7258;50.376;8.742;2023-07-13T04:56:03;5.20;;;2.30;;
14348;SDS011;7258;50.376;8.742;2023-07-13T04:58:06;4.38;;;1.98;;
14348;SDS011;7258;50.376;8.742;2023-07-13T05:00:10;5.07;;;2.20;;
14348;SDS011;7258;50.376;8.742;2023-07-13T05:02:13;4.25;;;2.00;;
14348;SDS011;7258;50.376;8.742;2023-07-13T05:04:16;6.80;;;1.98;;
14348;SDS011;7258;50.376;8.742;2023-07-13T05:06:19;4.05;;;1.70;;
14348;SDS011;7258;50.376;8.742;2023-07-13T05:08:22;7.47;;;1.60;;
14348;SDS011;7258;50.376;8.742;2023-07-13T05:10:25;2.75;;;1.40;;
14348;SDS011;7258;50.376;8.742;2023-07-13T05:12:29;5.70;;;1.63;;
14348;SDS011;7258;50.376;8.742;2023-07-13T05:14:33;3.28;;;1.55;;
14348;SDS011;7258;50.376;8.742;2023-07-13T05:16:36;5.00;;;1.52;;
14348;SDS011;7258;50.376;8.742;2023-07-13T05:18:38;2.13;;;1.35;;
14348;SDS011;7258;50.376;8.742;2023-07-13T05:20:43;3.58;;;1.67;;
14348;SDS011;7258;50.376;8.742;2023-07-13T05:22:46;2.63;;;1.35;;
14348;SDS011;7258;50.376;8.742;2023-07-13T05:24:49;4.90;;;1.40;;
14348;SDS011;7258;50.376;8.742;2023-07-13T05:26:52;5.45;;;1.67;;
14348;SDS011;7258;50.376;8.742;2023-07-13T05:28:57;6.35;;;1.60;;
14348;SDS011;7258;50.376;8.742;2023-07-13T05:30:59;6.43;;;2.30;;
14348;SDS011;7258;50.376;8.742;2023-07-13T05:33:02;4.97;;;1.80;;
14348;SDS011;7258;50.376;8.742;2023-07-13T05:35:05;5.15;;;1.75;;
14348;SDS011;7258;50.376;8.742;2023-07-13T05:37:09;3.58;;;1.50;;
14348;SDS011;7258;50.376;8.742;2023-07-13T05:39:12;5.63;;;1.50;;
14348;SDS011;7258;50.376;8.742;2023-07-13T05:41:15;3.47;;;1.67;;
14348;SDS011;7258;50.376;8.742;2023-07-13T05:43:18;4.53;;;1.25;;
14348;SDS011;7258;50.376;8.742;2023-07-13T05:45:22;6.63;;;1.50;;
14348;SDS011;7258;50.376;8.742;2023-07-13T05:47:25;3.00;;;1.58;;
14348;SDS011;7258;50.376;8.742;2023-07-13T05:49:29;3.33;;;1.52;;
14348;SDS011;7258;50.376;8.742;2023-07-13T05:51:32;5.15;;;1.35;;
14348;SDS011;7258;50.376;8.742;2023-07-13T05:53:35;4.70;;;1.75;;
14348;SDS011;7258;50.376;8.742;2023-07-13T05:55:40;2.25;;;1.20;;
14348;SDS011;7258;50.376;8.742;2023-07-13T05:57:43;4.85;;;1.50;;
14348;SDS011;7258;50.376;8.742;2023-07-13T05:59:46;3.38;;;1.40;;
14348;SDS011;7258;50.376;8.742;2023-07-13T06:01:50;2.55;;;1.20;;
14348;SDS011;7258;50.376;8.742;2023-07-13T06:03:54;2.75;;;1.38;;
14348;SDS011;7258;50.376;8.742;2023-07-13T06:05:57;2.83;;;1.30;;
14348;SDS011;7258;50.376;8.742;2023-07-13T06:08:01;2.17;;;1.30;;
14348;SDS011;7258;50.376;8.742;2023-07-13T06:10:05;1.40;;;1.10;;
14348;SDS011;7258;50.376;8.742;2023-07-13T06:12:08;4.32;;;1.30;;
14348;SDS011;7258;50.376;8.742;2023-07-13T06:14:11;5.07;;;1.20;;
14348;SDS011;7258;50.376;8.742;2023-07-13T06:16:14;2.25;;;1.17;;
14348;SDS011;7258;50.376;8.742;2023-07-13T06:18:19;3.17;;;1.30;;
14348;SDS011;7258;50.376;8.742;2023-07-13T06:20:22;3.00;;;1.15;;
14348;SDS011;7258;50.376;8.742;2023-07-13T06:22:26;2.45;;;1.30;;
14348;SDS011;7258;50.376;8.742;2023-07-13T06:24:28;3.20;;;1.60;;
14348;SDS011;7258;50.376;8.742;2023-07-13T06:26:31;2.53;;;1.13;;
14348;SDS011;7258;50.376;8.742;2023-07-13T06:28:34;2.70;;;1.30;;
14348;SDS011;7258;50.376;8.742;2023-07-13T06:30:38;2.17;;;1.35;;
14348;SDS011;7258;50.376;8.742;2023-07-13T06:32:41;3.00;;;1.50;;
14348;SDS011;7258;50.376;8.742;2023-07-13T06:34:45;1.75;;;1.02;;
14348;SDS011;7258;50.376;8.742;2023-07-13T06:36:48;4.63;;;1.42;;
14348;SDS011;7258;50.376;8.742;2023-07-13T06:38:51;2.15;;;0.98;;
14348;SDS011;7258;50.376;8.742;2023-07-13T06:40:54;3.35;;;1.00;;
14348;SDS011;7258;50.376;8.742;2023-07-13T06:42:57;3.30;;;0.90;;
14348;SDS011;7258;50.376;8.742;2023-07-13T06:45:00;4.40;;;1.23;;
14348;SDS011;7258;50.376;8.742;2023-07-13T06:47:03;7.05;;;1.25;;
14348;SDS011;7258;50.376;8.742;2023-07-13T06:49:07;4.57;;;1.10;;
14348;SDS011;7258;50.376;8.742;2023-07-13T06:51:11;1.70;;;0.70;;
14348;SDS011;7258;50.376;8.742;2023-07-13T06:53:14;2.47;;;1.20;;
14348;SDS011;7258;50.376;8.742;2023-07-13T06:55:17;1.85;;;0.93;;
14348;SDS011;7258;50.376;8.742;2023-07-13T06:57:19;2.40;;;1.00;;
14348;SDS011;7258;50.376;8.742;2023-07-13T06:59:22;2.60;;;0.98;;
14348;SDS011;7258;50.376;8.742;2023-07-13T07:01:25;1.45;;;0.82;;
14348;SDS011;7258;50.376;8.742;2023-07-13T07:03:27;1.45;;;0.80;;
14348;SDS011;7258;50.376;8.742;2023-07-13T07:05:31;1.85;;;0.90;;
14348;SDS011;7258;50.376;8.742;2023-07-13T07:07:35;3.33;;;1.13;;
14348;SDS011;7258;50.376;8.742;2023-07-13T07:09:38;1.83;;;1.10;;
14348;SDS011;7258;50.376;8.742;2023-07-13T07:11:41;1.27;;;1.00;;
14348;SDS011;7258;50.376;8.742;2023-07-13T07:14:02;1.92;;;1.02;;
14348;SDS011;7258;50.376;8.742;2023-07-13T07:16:05;1.67;;;1.10;;
14348;SDS011;7258;50.376;8.742;2023-07-13T07:18:09;3.80;;;1.25;;
14348;SDS011;7258;50.376;8.742;2023-07-13T07:20:12;1.58;;;0.85;;
14348;SDS011;7258;50.376;8.742;2023-07-13T07:22:15;2.35;;;1.05;;
14348;SDS011;7258;50.376;8.742;2023-07-13T07:24:20;1.30;;;1.00;;
14348;SDS011;7258;50.376;8.742;2023-07-13T07:26:23;3.08;;;0.90;;
14348;SDS011;7258;50.376;8.742;2023-07-13T07:28:30;1.45;;;0.88;;
14348;SDS011;7258;50.376;8.742;2023-07-13T07:30:36;1.48;;;0.70;;
14348;SDS011;7258;50.376;8.742;2023-07-13T07:32:42;3.22;;;1.00;;
14348;SDS011;7258;50.376;8.742;2023-07-13T07:34:48;2.85;;;0.90;;
14348;SDS011;7258;50.376;8.742;2023-07-13T07:36:50;5.20;;;1.20;;
14348;SDS011;7258;50.376;8.742;2023-07-13T07:38:56;3.65;;;1.00;;
14348;SDS011;7258;50.376;8.742;2023-07-13T07:41:02;1.25;;;0.77;;
14348;SDS011;7258;50.376;8.742;2023-07-13T07:43:09;2.00;;;1.08;;
14348;SDS011;7258;50.376;8.742;2023-07-13T07:45:13;3.03;;;1.05;;
14348;SDS011;7258;50.376;8.742;2023-07-13T07:47:16;3.10;;;0.88;;
14348;SDS011;7258;50.376;8.742;2023-07-13T07:49:20;1.23;;;0.85;;
14348;SDS011;7258;50.376;8.742;2023-07-13T07:51:23;1.38;;;0.90;;
14348;SDS011;7258;50.376;8.742;2023-07-13T07:53:26;1.30;;;0.68;;
14348;SDS011;7258;50.376;8.742;2023-07-13T07:55:29;3.22;;;1.10;;
14348;SDS011;7258;50.376;8.742;2023-07-13T07:57:36;2.13;;;1.00;;
14348;SDS011;7258;50.376;8.742;2023-07-13T07:59:42;2.70;;;1.10;;
14348;SDS011;7258;50.376;8.742;2023-07-13T08:01:47;1.55;;;1.05;;
14348;SDS011;7258;50.376;8.742;2023-07-13T08:03:54;1.30;;;0.80;;
14348;SDS011;7258;50.376;8.742;2023-07-13T08:06:01;1.42;;;0.85;;
14348;SDS011;7258;50.376;8.742;2023-07-13T08:08:07;3.08;;;1.00;;
14348;SDS011;7258;50.376;8.742;2023-07-13T08:10:10;1.95;;;0.98;;
14348;SDS011;7258;50.376;8.742;2023-07-13T08:12:13;1.83;;;1.00;;
14348;SDS011;7258;50.376;8.742;2023-07-13T08:14:20;2.08;;;0.82;;
14348;SDS011;7258;50.376;8.742;2023-07-13T08:16:23;1.33;;;0.90;;
14348;SDS011;7258;50.376;8.742;2023-07-13T08:18:27;1.13;;;0.93;;
14348;SDS011;7258;50.376;8.742;2023-07-13T08:20:30;1.30;;;0.90;;
14348;SDS011;7258;50.376;8.742;2023-07-13T08:22:33;1.25;;;0.85;;
14348;SDS011;7258;50.376;8.742;2023-07-13T08:24:36;2.35;;;0.80;;
14348;SDS011;7258;50.376;8.742;2023-07-13T08:26:39;1.92;;;0.73;;
14348;SDS011;7258;50.376;8.742;2023-07-13T08:28:42;1.30;;;0.90;;
14348;SDS011;7258;50.376;8.742;2023-07-13T08:30:45;1.50;;;0.82;;
14348;SDS011;7258;50.376;8.742;2023-07-13T08:32:50;2.28;;;0.90;;
14348;SDS011;7258;50.376;8.742;2023-07-13T08:34:53;1.58;;;0.88;;
14348;SDS011;7258;50.376;8.742;2023-07-13T08:36:56;2.30;;;0.93;;
14348;SDS011;7258;50.376;8.742;2023-07-13T08:38:59;3.00;;;0.85;;
14348;SDS011;7258;50.376;8.742;2023-07-13T08:41:03;2.50;;;0.80;;
14348;SDS011;7258;50.376;8.742;2023-07-13T08:43:15;1.25;;;0.50;;
14348;SDS011;7258;50.376;8.742;2023-07-13T08:45:22;1.65;;;0.70;;
14348;SDS011;7258;50.376;8.742;2023-07-13T08:47:31;2.15;;;0.80;;
14348;SDS011;7258;50.376;8.742;2023-07-13T08:49:38;1.20;;;0.80;;
14348;SDS011;7258;50.376;8.742;2023-07-13T08:51:43;0.70;;;0.70;;
14348;SDS011;7258;50.376;8.742;2023-07-13T08:53:48;1.42;;;0.88;;
14348;SDS011;7258;50.376;8.742;2023-07-13T08:55:56;1.35;;;0.70;;
14348;SDS011;7258;50.376;8.742;2023-07-13T08:58:02;1.70;;;0.90;;
14348;SDS011;7258;50.376;8.742;2023-07-13T09:00:14;2.38;;;1.10;;
14348;SDS011;7258;50.376;8.742;2023-07-13T09:02:23;1.00;;;0.63;;
14348;SDS011;7258;50.376;8.742;2023-07-13T09:04:32;5.82;;;1.08;;
14348;SDS011;7258;50.376;8.742;2023-07-13T09:06:42;2.65;;;0.80;;
14348;SDS011;7258;50.376;8.742;2023-07-13T09:08:55;1.00;;;0.90;;
14348;SDS011;7258;50.376;8.742;2023-07-13T09:11:14;2.75;;;1.00;;
14348;SDS011;7258;50.376;8.742;2023-07-13T09:13:26;0.70;;;0.70;;
14348;SDS011;7258;50.376;8.742;2023-07-13T09:15:38;3.75;;;0.90;;
14348;SDS011;7258;50.376;8.742;2023-07-13T09:17:45;1.50;;;1.00;;
14348;SDS011;7258;50.376;8.742;2023-07-13T09:19:54;0.88;;;0.80;;
14348;SDS011;7258;50.376;8.742;2023-07-13T09:22:05;1.63;;;0.75;;
14348;SDS011;7258;50.376;8.742;2023-07-13T09:24:22;2.28;;;0.90;;
14348;SDS011;7258;50.376;8.742;2023-07-13T09:26:33;1.40;;;0.80;;
14348;SDS011;7258;50.376;8.742;2023-07-13T09:28:37;1.75;;;0.90;;
14348;SDS011;7258;50.376;8.742;2023-07-13T09:30:45;2.55;;;0.95;;
14348;SDS011;7258;50.376;8.742;2023-07-13T09:32:54;1.08;;;0.90;;
14348;SDS011;7258;50.376;8.742;2023-07-13T09:35:01;1.40;;;0.80;;
14348;SDS011;7258;50.376;8.742;2023-07-13T09:37:11;1.33;;;0.80;;
14348;SDS011;7258;50.376;8.742;2023-07-13T09:39:15;0.68;;;0.68;;
14348;SDS011;7258;50.376;8.742;2023-07-13T09:41:27;1.63;;;0.75;;
14348;SDS011;7258;50.376;8.742;2023-07-13T09:43:37;1.42;;;0.85;;
14348;SDS011;7258;50.376;8.742;2023-07-13T09:45:40;1.55;;;0.90;;
14348;SDS011;7258;50.376;8.742;2023-07-13T09:47:47;1.55;;;0.88;;
14348;SDS011;7258;50.376;8.742;2023-07-13T09:49:53;0.70;;;0.70;;
14348;SDS011;7258;50.376;8.742;2023-07-13T09:52:06;1.42;;;0.80;;
14348;SDS011;7258;50.376;8.742;2023-07-13T09:54:17;4.38;;;0.75;;
14348;SDS011;7258;50.376;8.742;2023-07-13T09:56:22;1.02;;;0.80;;
14348;SDS011;7258;50.376;8.742;2023-07-13T09:58:27;0.88;;;0.85;;
14348;SDS011;7258;50.376;8.742;2023-07-13T10:00:33;2.30;;;0.88;;
14348;SDS011;7258;50.376;8.742;2023-07-13T10:02:36;0.70;;;0.70;;
14348;SDS011;7258;50.376;8.742;2023-07-13T10:04:39;1.67;;;1.10;;
14348;SDS011;7258;50.376;8.742;2023-07-13T10:06:44;1.90;;;0.90;;
14348;SDS011;7258;50.376;8.742;2023-07-13T10:08:49;1.15;;;0.80;;
14348;SDS011;7258;50.376;8.742;2023-07-13T10:10:54;2.33;;;0.73;;
14348;SDS011;7258;50.376;8.742;2023-07-13T10:13:02;1.05;;;0.77;;
14348;SDS011;7258;50.376;8.742;2023-07-13T10:15:07;1.25;;;1.02;;
14348;SDS011;7258;50.376;8.742;2023-07-13T10:17:26;1.35;;;0.88;;
14348;SDS011;7258;50.376;8.742;2023-07-13T10:19:32;1.45;;;0.90;;
14348;SDS011;7258;50.376;8.742;2023-07-13T10:21:39;1.42;;;1.00;;
14348;SDS011;7258;50.376;8.742;2023-07-13T10:23:50;1.38;;;0.90;;
14348;SDS011;7258;50.376;8.742;2023-07-13T10:25:55;1.52;;;0.80;;
14348;SDS011;7258;50.376;8.742;2023-07-13T10:28:03;1.27;;;0.98;;
14348;SDS011;7258;50.376;8.742;2023-07-13T10:30:14;2.03;;;0.90;;
14348;SDS011;7258;50.376;8.742;2023-07-13T10:32:24;1.27;;;0.80;;
14348;SDS011;7258;50.376;8.742;2023-07-13T10:34:27;1.45;;;0.93;;
14348;SDS011;7258;50.376;8.742;2023-07-13T10:36:33;0.90;;;0.88;;
14348;SDS011;7258;50.376;8.742;2023-07-13T10:38:41;1.40;;;1.00;;
14348;SDS011;7258;50.376;8.742;2023-07-13T10:40:47;2.22;;;1.00;;
14348;SDS011;7258;50.376;8.742;2023-07-13T10:42:59;1.23;;;0.95;;
14348;SDS011;7258;50.376;8.742;2023-07-13T10:45:08;3.15;;;1.00;;
14348;SDS011;7258;50.376;8.742;2023-07-13T10:47:18;2.75;;;1.10;;
14348;SDS011;7258;50.376;8.742;2023-07-13T10:49:21;1.08;;;1.05;;
14348;SDS011;7258;50.376;8.742;2023-07-13T10:51:25;3.42;;;1.00;;
14348;SDS011;7258;50.376;8.742;2023-07-13T10:53:30;0.98;;;0.93;;
14348;SDS011;7258;50.376;8.742;2023-07-13T10:55:38;1.83;;;1.10;;
14348;SDS011;7258;50.376;8.742;2023-07-13T10:58:00;2.17;;;1.10;;
14348;SDS011;7258;50.376;8.742;2023-07-13T11:00:14;0.80;;;0.80;;
14348;SDS011;7258;50.376;8.742;2023-07-13T11:02:23;1.25;;;0.90;;
14348;SDS011;7258;50.376;8.742;2023-07-13T11:04:29;2.47;;;1.10;;
14348;SDS011;7258;50.376;8.742;2023-07-13T11:06:43;1.17;;;1.08;;
14348;SDS011;7258;50.376;8.742;2023-07-13T11:08:51;3.78;;;1.08;;
14348;SDS011;7258;50.376;8.742;2023-07-13T11:10:56;2.40;;;1.40;;
14348;SDS011;7258;50.376;8.742;2023-07-13T11:13:01;1.55;;;1.30;;
14348;SDS011;7258;50.376;8.742;2023-07-13T11:15:04;2.97;;;1.55;;
14348;SDS011;7258;50.376;8.742;2023-07-13T11:17:25;1.50;;;1.10;;
14348;SDS011;7258;50.376;8.742;2023-07-13T11:19:40;1.30;;;1.20;;
14348;SDS011;7258;50.376;8.742;2023-07-13T11:24:13;1.35;;;0.98;;
14348;SDS011;7258;50.376;8.742;2023-07-13T11:28:45;1.25;;;1.08;;
14348;SDS011;7258;50.376;8.742;2023-07-13T11:33:18;1.65;;;1.10;;
14348;SDS011;7258;50.376;8.742;2023-07-13T11:35:24;3.70;;;1.00;;
14348;SDS011;7258;50.376;8.742;2023-07-13T11:37:27;1.88;;;1.20;;
14348;SDS011;7258;50.376;8.742;2023-07-13T11:39:33;1.85;;;1.40;;
14348;SDS011;7258;50.376;8.742;2023-07-13T11:41:49;1.65;;;1.23;;
14348;SDS011;7258;50.376;8.742;2023-07-13T11:44:01;2.45;;;1.20;;
14348;SDS011;7258;50.376;8.742;2023-07-13T11:46:14;1.13;;;1.00;;
14348;SDS011;7258;50.376;8.742;2023-07-13T11:48:22;2.80;;;1.35;;
14348;SDS011;7258;50.376;8.742;2023-07-13T11:50:26;1.13;;;1.00;;
14348;SDS011;7258;50.376;8.742;2023-07-13T11:52:31;1.73;;;1.08;;
14348;SDS011;7258;50.376;8.742;2023-07-13T11:54:43;1.67;;;1.00;;
14348;SDS011;7258;50.376;8.742;2023-07-13T11:56:52;1.10;;;1.00;;
14348;SDS011;7258;50.376;8.742;2023-07-13T11:58:57;1.27;;;1.13;;
14348;SDS011;7258;50.376;8.742;2023-07-13T12:01:05;1.77;;;1.08;;
14348;SDS011;7258;50.376;8.742;2023-07-13T12:03:10;1.20;;;1.10;;
14348;SDS011;7258;50.376;8.742;2023-07-13T12:05:15;3.05;;;1.13;;
14348;SDS011;7258;50.376;8.742;2023-07-13T12:07:19;3.05;;;1.02;;
14348;SDS011;7258;50.376;8.742;2023-07-13T12:09:22;2.00;;;1.15;;
14348;SDS011;7258;50.376;8.742;2023-07-13T12:11:26;2.55;;;1.02;;
14348;SDS011;7258;50.376;8.742;2023-07-13T12:13:29;3.10;;;1.17;;
14348;SDS011;7258;50.376;8.742;2023-07-13T12:15:39;2.70;;;1.15;;
14348;SDS011;7258;50.376;8.742;2023-07-13T12:17:43;2.22;;;1.30;;
14348;SDS011;7258;50.376;8.742;2023-07-13T12:19:48;1.30;;;1.10;;
14348;SDS011;7258;50.376;8.742;2023-07-13T12:21:52;1.27;;;1.10;;
14348;SDS011;7258;50.376;8.742;2023-07-13T12:24:00;2.05;;;1.20;;
14348;SDS011;7258;50.376;8.742;2023-07-13T12:26:05;2.92;;;1.50;;
14348;SDS011;7258;50.376;8.742;2023-07-13T12:28:19;3.20;;;1.20;;
14348;SDS011;7258;50.376;8.742;2023-07-13T12:30:26;3.00;;;1.23;;
14348;SDS011;7258;50.376;8.742;2023-07-13T12:32:33;3.17;;;1.35;;
14348;SDS011;7258;50.376;8.742;2023-07-13T12:34:50;3.00;;;1.20;;
14348;SDS011;7258;50.376;8.742;2023-07-13T12:36:55;2.05;;;1.10;;
14348;SDS011;7258;50.376;8.742;2023-07-13T12:39:04;1.77;;;1.15;;
14348;SDS011;7258;50.376;8.742;2023-07-13T12:41:15;2.05;;;1.00;;
14348;SDS011;7258;50.376;8.742;2023-07-13T12:43:19;2.58;;;1.10;;
14348;SDS011;7258;50.376;8.742;2023-07-13T12:45:23;1.90;;;1.10;;
14348;SDS011;7258;50.376;8.742;2023-07-13T12:47:29;1.65;;;1.17;;
14348;SDS011;7258;50.376;8.742;2023-07-13T12:49:34;2.00;;;1.40;;
14348;SDS011;7258;50.376;8.742;2023-07-13T12:51:44;2.55;;;1.20;;